Terminal Aerodrome Forecast
Issued by NWS Cleveland, OH

Home | Current Version | Previous Version | Graphics & Text | Print | Product List | Glossary On
Versions: 1 2 3 4 5 6 7 8 9 10 11 12 13 14 15 16 17 18 19 20 21 22 23
617
FTUS41 KCLE 142343
TAFCAK
TAF
KCAK 142343Z 1500/1524 18008KT 1SM -RA BR OVC007
      TEMPO 1500/1504 1/2SM FG OVC003
     FM150400 20010KT 2SM BR OVC003
     FM151500 22012G20KT 5SM HZ OVC010
     FM152000 22012KT 1 1/2SM -RA BR OVC007=

USA.gov is the U.S. government's official web portal to all federal, state and local government web resources and services.